PWSweather.com
Personal Weather Stations
Station Observations
CW4114
Near Downtown, Rogers City, MI 49779

Near DowntownRogers City, MI 49779

Lat: 45.417443, Lon: -83.810642

Elevation: 605

Station Type: Davis Vantage Pro2 w/Solar

Latest ConditionsUpdated 12:35:48 PM EDT Tuesday, Sep 2, 2014
Currently Today's Max Today's Min Today's Average
Temperature 75.4°F24.1°C 75.4°F24.1°C 61.2°F16.2°C 65.9°F18.8°C
Dew Point 61.9°F16.6°C 64.8°F18.2°C 60.1°F15.6°C 62.4°F16.9°C
Winds 4.0 mph WSW6.4 kmh WSW 8.1 mph WSW13.0 kmh WSW - 3.8 mph 6.1 kmh
Wind Gusts 11.0 mph17.7 kmh 16.1 mph25.9 kmh - -
Humidity 63% 98% 63% 89%
Pressure 29.78 in1008.5 mb 29.78 in1008.5 mb 29.67 in1004.7 mb -
Hour Temp Dew Point Humidity Winds Wind Gusts Pressure Precip Precip Rate Daily Precip Total
12:35 PM 75.4°F24.1°C 61.9°F16.6°C 63% 4.0 mph WSW6.4 kmh WSW 11.0 mph17.7 kmh 29.78 in1008.5 mb 0.00 in0.0 mm 0.00 in/hr0.0 mm/hr 0.00 in0.0 mm
12:30 PM 74.7°F23.7°C 62.1°F16.7°C 65% 4.0 mph W6.4 kmh W 10.1 mph16.3 kmh 29.78 in1008.5 mb 0.00 in0.0 mm 0.00 in/hr0.0 mm/hr 0.00 in0.0 mm
12:25 PM 73.2°F22.9°C 61.5°F16.4°C 67% 4.0 mph WSW6.4 kmh WSW 10.1 mph16.3 kmh 29.78 in1008.5 mb 0.00 in0.0 mm 0.00 in/hr0.0 mm/hr 0.00 in0.0 mm
12:20 PM 73.8°F23.2°C 61.3°F16.3°C 65% 4.9 mph WNW7.9 kmh WNW 10.1 mph16.3 kmh 29.78 in1008.5 mb 0.00 in0.0 mm 0.00 in/hr0.0 mm/hr 0.00 in0.0 mm
12:15 PM 74.1°F23.4°C 60.8°F16.0°C 63% 4.9 mph NW7.9 kmh NW 14.1 mph22.7 kmh 29.78 in1008.5 mb 0.00 in0.0 mm 0.00 in/hr0.0 mm/hr 0.00 in0.0 mm
12:10 PM 74.1°F23.4°C 60.8°F16.0°C 63% 4.9 mph NNW7.9 kmh NNW 10.1 mph16.3 kmh 29.78 in1008.5 mb 0.00 in0.0 mm 0.00 in/hr0.0 mm/hr 0.00 in0.0 mm
12:05 PM 74.3°F23.5°C 62.2°F16.8°C 66% 4.9 mph NW7.9 kmh NW 12.1 mph19.5 kmh 29.78 in1008.5 mb 0.00 in0.0 mm 0.00 in/hr0.0 mm/hr 0.00 in0.0 mm
12:00 PM 73.6°F23.1°C 61.5°F16.4°C 66% 6.0 mph NNW9.7 kmh NNW 12.1 mph19.5 kmh 29.78 in1008.5 mb 0.00 in0.0 mm 0.00 in/hr0.0 mm/hr 0.00 in0.0 mm
11:55 AM 73.0°F22.8°C 61.5°F16.4°C 67% 8.1 mph WNW13.0 kmh WNW 14.1 mph22.7 kmh 29.78 in1008.5 mb 0.00 in0.0 mm 0.00 in/hr0.0 mm/hr 0.00 in0.0 mm
11:50 AM 72.7°F22.6°C 61.5°F16.4°C 68% 8.1 mph WSW13.0 kmh WSW 16.1 mph25.9 kmh 29.78 in1008.5 mb 0.00 in0.0 mm 0.00 in/hr0.0 mm/hr 0.00 in0.0 mm
11:45 AM 72.3°F22.4°C 61.2°F16.2°C 68% 6.9 mph N11.1 kmh N 16.1 mph25.9 kmh 29.78 in1008.5 mb 0.00 in0.0 mm 0.00 in/hr0.0 mm/hr 0.00 in0.0 mm
11:40 AM 73.2°F22.9°C 61.5°F16.4°C 67% 4.9 mph W7.9 kmh W 12.1 mph19.5 kmh 29.78 in1008.5 mb 0.00 in0.0 mm 0.00 in/hr0.0 mm/hr 0.00 in0.0 mm
11:35 AM 73.9°F23.3°C 63.5°F17.5°C 70% 4.9 mph N7.9 kmh N 12.1 mph19.5 kmh 29.78 in1008.5 mb 0.00 in0.0 mm 0.00 in/hr0.0 mm/hr 0.00 in0.0 mm
11:30 AM 74.1°F23.4°C 63.3°F17.4°C 69% 4.9 mph W7.9 kmh W 14.1 mph22.7 kmh 29.78 in1008.5 mb 0.00 in0.0 mm 0.00 in/hr0.0 mm/hr 0.00 in0.0 mm
11:25 AM 73.4°F23.0°C 62.6°F17.0°C 69% 4.0 mph NW6.4 kmh NW 11.0 mph17.7 kmh 29.78 in1008.5 mb 0.00 in0.0 mm 0.00 in/hr0.0 mm/hr 0.00 in0.0 mm
11:20 AM 73.2°F22.9°C 63.3°F17.4°C 71% 4.9 mph W7.9 kmh W 11.0 mph17.7 kmh 29.78 in1008.5 mb 0.00 in0.0 mm 0.00 in/hr0.0 mm/hr 0.00 in0.0 mm
11:15 AM 73.6°F23.1°C 62.8°F17.1°C 69% 6.9 mph WSW11.1 kmh WSW 11.0 mph17.7 kmh 29.78 in1008.5 mb 0.00 in0.0 mm 0.00 in/hr0.0 mm/hr 0.00 in0.0 mm
11:10 AM 72.7°F22.6°C 61.9°F16.6°C 69% 6.9 mph NW11.1 kmh NW 14.1 mph22.7 kmh 29.78 in1008.5 mb 0.00 in0.0 mm 0.00 in/hr0.0 mm/hr 0.00 in0.0 mm
11:05 AM 73.6°F23.1°C 62.8°F17.1°C 69% 4.9 mph W7.9 kmh W 12.1 mph19.5 kmh 29.78 in1008.5 mb 0.00 in0.0 mm 0.00 in/hr0.0 mm/hr 0.00 in0.0 mm
11:00 AM 73.2°F22.9°C 63.7°F17.6°C 72% 4.0 mph W6.4 kmh W 10.1 mph16.3 kmh 29.78 in1008.5 mb 0.00 in0.0 mm 0.00 in/hr0.0 mm/hr 0.00 in0.0 mm
10:55 AM 73.0°F22.8°C 62.6°F17.0°C 70% 4.0 mph W6.4 kmh W 10.1 mph16.3 kmh 29.78 in1008.5 mb 0.00 in0.0 mm 0.00 in/hr0.0 mm/hr 0.00 in0.0 mm
10:50 AM 72.3°F22.4°C 63.1°F17.3°C 73% 4.9 mph NW7.9 kmh NW 12.1 mph19.5 kmh 29.78 in1008.5 mb 0.00 in0.0 mm 0.00 in/hr0.0 mm/hr 0.00 in0.0 mm
10:45 AM 72.1°F22.3°C 62.2°F16.8°C 71% 4.0 mph WNW6.4 kmh WNW 13.0 mph20.9 kmh 29.78 in1008.5 mb 0.00 in0.0 mm 0.00 in/hr0.0 mm/hr 0.00 in0.0 mm
10:40 AM 72.1°F22.3°C 62.6°F17.0°C 72% 4.0 mph WNW6.4 kmh WNW 10.1 mph16.3 kmh 29.77 in1008.1 mb 0.00 in0.0 mm 0.00 in/hr0.0 mm/hr 0.00 in0.0 mm
10:35 AM 71.8°F22.1°C 61.9°F16.6°C 71% 2.9 mph N4.7 kmh N 12.1 mph19.5 kmh 29.77 in1008.1 mb 0.00 in0.0 mm 0.00 in/hr0.0 mm/hr 0.00 in0.0 mm
10:30 AM 71.8°F22.1°C 62.6°F17.0°C 73% 4.0 mph WNW6.4 kmh WNW 8.1 mph13.0 kmh 29.77 in1008.1 mb 0.00 in0.0 mm 0.00 in/hr0.0 mm/hr 0.00 in0.0 mm
10:25 AM 71.8°F22.1°C 62.2°F16.8°C 72% 4.0 mph NW6.4 kmh NW 8.9 mph14.3 kmh 29.77 in1008.1 mb 0.00 in0.0 mm 0.00 in/hr0.0 mm/hr 0.00 in0.0 mm
10:20 AM 71.8°F22.1°C 63.0°F17.2°C 74% 4.0 mph WSW6.4 kmh WSW 10.1 mph16.3 kmh 29.77 in1008.1 mb 0.00 in0.0 mm 0.00 in/hr0.0 mm/hr 0.00 in0.0 mm
10:15 AM 71.4°F21.9°C 63.1°F17.3°C 75% 4.0 mph WNW6.4 kmh WNW 9.0 mph14.5 kmh 29.77 in1008.1 mb 0.00 in0.0 mm 0.00 in/hr0.0 mm/hr 0.00 in0.0 mm
10:10 AM 71.2°F21.8°C 62.6°F17.0°C 74% 2.9 mph WSW4.7 kmh WSW 6.9 mph11.1 kmh 29.77 in1008.1 mb 0.00 in0.0 mm 0.00 in/hr0.0 mm/hr 0.00 in0.0 mm
10:05 AM 71.1°F21.7°C 63.1°F17.3°C 76% 2.0 mph N3.2 kmh N 6.9 mph11.1 kmh 29.77 in1008.1 mb 0.00 in0.0 mm 0.00 in/hr0.0 mm/hr 0.00 in0.0 mm
10:00 AM 70.5°F21.4°C 61.9°F16.6°C 74% 2.9 mph W4.7 kmh W 8.0 mph12.9 kmh 29.77 in1008.1 mb 0.00 in0.0 mm 0.00 in/hr0.0 mm/hr 0.00 in0.0 mm
09:55 AM 70.5°F21.4°C 63.0°F17.2°C 77% 2.9 mph NW4.7 kmh NW 6.9 mph11.1 kmh 29.77 in1008.1 mb 0.00 in0.0 mm 0.00 in/hr0.0 mm/hr 0.00 in0.0 mm
09:50 AM 70.2°F21.2°C 63.3°F17.4°C 79% 2.9 mph WSW4.7 kmh WSW 8.1 mph13.0 kmh 29.77 in1008.1 mb 0.00 in0.0 mm 0.00 in/hr0.0 mm/hr 0.00 in0.0 mm
09:45 AM 69.6°F20.9°C 62.4°F16.9°C 78% 4.0 mph W6.4 kmh W 10.1 mph16.3 kmh 29.77 in1008.1 mb 0.00 in0.0 mm 0.00 in/hr0.0 mm/hr 0.00 in0.0 mm
09:40 AM 69.6°F20.9°C 62.8°F17.1°C 79% 4.0 mph NW6.4 kmh NW 8.1 mph13.0 kmh 29.77 in1008.1 mb 0.00 in0.0 mm 0.00 in/hr0.0 mm/hr 0.00 in0.0 mm
09:35 AM 69.4°F20.8°C 63.7°F17.6°C 82% 4.0 mph WNW6.4 kmh WNW 6.9 mph11.1 kmh 29.77 in1008.1 mb 0.00 in0.0 mm 0.00 in/hr0.0 mm/hr 0.00 in0.0 mm
09:30 AM 68.9°F20.5°C 62.8°F17.1°C 81% 4.0 mph W6.4 kmh W 8.1 mph13.0 kmh 29.77 in1008.1 mb 0.00 in0.0 mm 0.00 in/hr0.0 mm/hr 0.00 in0.0 mm
09:25 AM 68.7°F20.4°C 63.3°F17.4°C 83% 4.0 mph W6.4 kmh W 8.1 mph13.0 kmh 29.77 in1008.1 mb 0.00 in0.0 mm 0.00 in/hr0.0 mm/hr 0.00 in0.0 mm
09:20 AM 68.2°F20.1°C 62.8°F17.1°C 83% 4.9 mph W7.9 kmh W 10.1 mph16.3 kmh 29.77 in1008.1 mb 0.00 in0.0 mm 0.00 in/hr0.0 mm/hr 0.00 in0.0 mm
09:15 AM 67.6°F19.8°C 63.0°F17.2°C 85% 4.9 mph WSW7.9 kmh WSW 8.9 mph14.3 kmh 29.77 in1008.1 mb 0.00 in0.0 mm 0.00 in/hr0.0 mm/hr 0.00 in0.0 mm
09:10 AM 67.3°F19.6°C 63.0°F17.2°C 86% 4.9 mph WSW7.9 kmh WSW 10.1 mph16.3 kmh 29.77 in1008.1 mb 0.00 in0.0 mm 0.00 in/hr0.0 mm/hr 0.00 in0.0 mm
09:05 AM 66.9°F19.4°C 63.0°F17.2°C 87% 4.0 mph W6.4 kmh W 8.9 mph14.3 kmh 29.77 in1008.1 mb 0.00 in0.0 mm 0.00 in/hr0.0 mm/hr 0.00 in0.0 mm
09:00 AM 66.7°F19.3°C 62.8°F17.1°C 87% 4.0 mph W6.4 kmh W 10.1 mph16.3 kmh 29.77 in1008.1 mb 0.00 in0.0 mm 0.00 in/hr0.0 mm/hr 0.00 in0.0 mm
08:55 AM 66.4°F19.1°C 62.8°F17.1°C 88% 4.0 mph W6.4 kmh W 10.1 mph16.3 kmh 29.77 in1008.1 mb 0.00 in0.0 mm 0.00 in/hr0.0 mm/hr 0.00 in0.0 mm
08:50 AM 65.8°F18.8°C 62.4°F16.9°C 89% 4.9 mph W7.9 kmh W 8.1 mph13.0 kmh 29.77 in1008.1 mb 0.00 in0.0 mm 0.00 in/hr0.0 mm/hr 0.00 in0.0 mm
08:45 AM 65.5°F18.6°C 62.4°F16.9°C 90% 4.0 mph W6.4 kmh W 8.9 mph14.3 kmh 29.77 in1008.1 mb 0.00 in0.0 mm 0.00 in/hr0.0 mm/hr 0.00 in0.0 mm
08:40 AM 65.1°F18.4°C 62.4°F16.9°C 91% 4.0 mph W6.4 kmh W 6.9 mph11.1 kmh 29.77 in1008.1 mb 0.00 in0.0 mm 0.00 in/hr0.0 mm/hr 0.00 in0.0 mm
08:35 AM 64.8°F18.2°C 62.4°F16.9°C 92% 4.0 mph WSW6.4 kmh WSW 6.9 mph11.1 kmh 29.77 in1008.1 mb 0.00 in0.0 mm 0.00 in/hr0.0 mm/hr 0.00 in0.0 mm
08:30 AM 64.6°F18.1°C 62.2°F16.8°C 92% 4.0 mph WNW6.4 kmh WNW 6.0 mph9.7 kmh 29.77 in1008.1 mb 0.00 in0.0 mm 0.00 in/hr0.0 mm/hr 0.00 in0.0 mm
08:25 AM 64.0°F17.8°C 62.1°F16.7°C 93% 2.9 mph W4.7 kmh W 6.0 mph9.7 kmh 29.77 in1008.1 mb 0.00 in0.0 mm 0.00 in/hr0.0 mm/hr 0.00 in0.0 mm
08:20 AM 63.9°F17.7°C 61.9°F16.6°C 93% 2.9 mph W4.7 kmh W 6.0 mph9.7 kmh 29.77 in1008.1 mb 0.00 in0.0 mm 0.00 in/hr0.0 mm/hr 0.00 in0.0 mm
08:15 AM 63.5°F17.5°C 61.7°F16.5°C 94% 4.0 mph WSW6.4 kmh WSW 6.0 mph9.7 kmh 29.77 in1008.1 mb 0.00 in0.0 mm 0.00 in/hr0.0 mm/hr 0.00 in0.0 mm
08:10 AM 63.1°F17.3°C 61.3°F16.3°C 94% 4.0 mph WSW6.4 kmh WSW 6.9 mph11.1 kmh 29.78 in1008.5 mb 0.00 in0.0 mm 0.00 in/hr0.0 mm/hr 0.00 in0.0 mm
08:05 AM 62.8°F17.1°C 61.3°F16.3°C 95% 2.9 mph WSW4.7 kmh WSW 6.9 mph11.1 kmh 29.77 in1008.1 mb 0.00 in0.0 mm 0.00 in/hr0.0 mm/hr 0.00 in0.0 mm
08:00 AM 62.4°F16.9°C 61.0°F16.1°C 95% 2.9 mph WSW4.7 kmh WSW 4.9 mph7.9 kmh 29.77 in1008.1 mb 0.00 in0.0 mm 0.00 in/hr0.0 mm/hr 0.00 in0.0 mm
07:55 AM 62.1°F16.7°C 61.0°F16.1°C 96% 4.0 mph WSW6.4 kmh WSW 6.0 mph9.7 kmh 29.77 in1008.1 mb 0.00 in0.0 mm 0.00 in/hr0.0 mm/hr 0.00 in0.0 mm
07:50 AM 61.9°F16.6°C 60.8°F16.0°C 96% 2.9 mph WSW4.7 kmh WSW 4.9 mph7.9 kmh 29.77 in1008.1 mb 0.00 in0.0 mm 0.00 in/hr0.0 mm/hr 0.00 in0.0 mm
07:45 AM 61.5°F16.4°C 60.4°F15.8°C 96% 4.0 mph WSW6.4 kmh WSW 6.0 mph9.7 kmh 29.77 in1008.1 mb 0.00 in0.0 mm 0.00 in/hr0.0 mm/hr 0.00 in0.0 mm
07:40 AM 61.3°F16.3°C 60.3°F15.7°C 96% 4.0 mph SW6.4 kmh SW 6.9 mph11.1 kmh 29.77 in1008.1 mb 0.00 in0.0 mm 0.00 in/hr0.0 mm/hr 0.00 in0.0 mm
07:35 AM 61.2°F16.2°C 60.3°F15.7°C 97% 2.9 mph WSW4.7 kmh WSW 6.9 mph11.1 kmh 29.76 in1007.8 mb 0.00 in0.0 mm 0.00 in/hr0.0 mm/hr 0.00 in0.0 mm
07:30 AM 61.2°F16.2°C 60.1°F15.6°C 96% 2.9 mph WSW4.7 kmh WSW 7.0 mph11.3 kmh 29.76 in1007.8 mb 0.00 in0.0 mm 0.00 in/hr0.0 mm/hr 0.00 in0.0 mm
07:25 AM 61.2°F16.2°C 60.1°F15.6°C 96% 2.9 mph W4.7 kmh W 4.9 mph7.9 kmh 29.76 in1007.8 mb 0.00 in0.0 mm 0.00 in/hr0.0 mm/hr 0.00 in0.0 mm
07:20 AM 61.2°F16.2°C 60.3°F15.7°C 97% 4.0 mph WSW6.4 kmh WSW 6.0 mph9.7 kmh 29.76 in1007.8 mb 0.00 in0.0 mm 0.00 in/hr0.0 mm/hr 0.00 in0.0 mm
07:15 AM 61.2°F16.2°C 60.3°F15.7°C 97% 4.0 mph W6.4 kmh W 7.0 mph11.3 kmh 29.76 in1007.8 mb 0.00 in0.0 mm 0.00 in/hr0.0 mm/hr 0.00 in0.0 mm
07:10 AM 61.2°F16.2°C 60.1°F15.6°C 96% 2.9 mph WSW4.7 kmh WSW 6.0 mph9.7 kmh 29.75 in1007.5 mb 0.00 in0.0 mm 0.00 in/hr0.0 mm/hr 0.00 in0.0 mm
07:05 AM 61.2°F16.2°C 60.3°F15.7°C 97% 2.9 mph WSW4.7 kmh WSW 6.0 mph9.7 kmh 29.75 in1007.5 mb 0.00 in0.0 mm 0.00 in/hr0.0 mm/hr 0.00 in0.0 mm
07:00 AM 61.3°F16.3°C 60.3°F15.7°C 96% 2.9 mph WSW4.7 kmh WSW 4.9 mph7.9 kmh 29.75 in1007.5 mb 0.00 in0.0 mm 0.00 in/hr0.0 mm/hr 0.00 in0.0 mm
06:55 AM 61.3°F16.3°C 60.3°F15.7°C 96% 2.9 mph W4.7 kmh W 4.9 mph7.9 kmh 29.75 in1007.5 mb 0.00 in0.0 mm 0.00 in/hr0.0 mm/hr 0.00 in0.0 mm
06:50 AM 61.3°F16.3°C 60.3°F15.7°C 96% 2.9 mph W4.7 kmh W 4.9 mph7.9 kmh 29.75 in1007.5 mb 0.00 in0.0 mm 0.00 in/hr0.0 mm/hr 0.00 in0.0 mm
06:45 AM 61.5°F16.4°C 60.4°F15.8°C 96% 2.9 mph W4.7 kmh W 4.9 mph7.9 kmh 29.75 in1007.5 mb 0.00 in0.0 mm 0.00 in/hr0.0 mm/hr 0.00 in0.0 mm
06:40 AM 61.7°F16.5°C 60.6°F15.9°C 96% 4.0 mph WSW6.4 kmh WSW 6.0 mph9.7 kmh 29.75 in1007.5 mb 0.00 in0.0 mm 0.00 in/hr0.0 mm/hr 0.00 in0.0 mm
06:35 AM 61.9°F16.6°C 60.8°F16.0°C 96% 4.0 mph SW6.4 kmh SW 6.9 mph11.1 kmh 29.74 in1007.1 mb 0.00 in0.0 mm 0.00 in/hr0.0 mm/hr 0.00 in0.0 mm
06:30 AM 61.9°F16.6°C 60.8°F16.0°C 96% 4.0 mph WSW6.4 kmh WSW 8.1 mph13.0 kmh 29.74 in1007.1 mb 0.00 in0.0 mm 0.00 in/hr0.0 mm/hr 0.00 in0.0 mm
06:25 AM 62.1°F16.7°C 61.0°F16.1°C 96% 4.0 mph W6.4 kmh W 6.9 mph11.1 kmh 29.74 in1007.1 mb 0.00 in0.0 mm 0.00 in/hr0.0 mm/hr 0.00 in0.0 mm
06:20 AM 62.1°F16.7°C 61.0°F16.1°C 96% 4.0 mph W6.4 kmh W 6.0 mph9.7 kmh 29.74 in1007.1 mb 0.00 in0.0 mm 0.00 in/hr0.0 mm/hr 0.00 in0.0 mm
06:15 AM 62.2°F16.8°C 61.2°F16.2°C 96% 4.0 mph W6.4 kmh W 6.0 mph9.7 kmh 29.74 in1007.1 mb 0.00 in0.0 mm 0.00 in/hr0.0 mm/hr 0.00 in0.0 mm
06:10 AM 62.2°F16.8°C 61.2°F16.2°C 96% 4.0 mph WSW6.4 kmh WSW 4.9 mph7.9 kmh 29.74 in1007.1 mb 0.00 in0.0 mm 0.00 in/hr0.0 mm/hr 0.00 in0.0 mm
06:05 AM 62.2°F16.8°C 61.3°F16.3°C 97% 4.0 mph WSW6.4 kmh WSW 6.9 mph11.1 kmh 29.74 in1007.1 mb 0.00 in0.0 mm 0.00 in/hr0.0 mm/hr 0.00 in0.0 mm
06:00 AM 62.2°F16.8°C 61.3°F16.3°C 97% 4.0 mph WSW6.4 kmh WSW 6.9 mph11.1 kmh 29.74 in1007.1 mb 0.00 in0.0 mm 0.00 in/hr0.0 mm/hr 0.00 in0.0 mm
05:55 AM 62.2°F16.8°C 61.3°F16.3°C 97% 4.0 mph WNW6.4 kmh WNW 6.9 mph11.1 kmh 29.74 in1007.1 mb 0.00 in0.0 mm 0.00 in/hr0.0 mm/hr 0.00 in0.0 mm
05:50 AM 62.2°F16.8°C 61.3°F16.3°C 97% 4.0 mph W6.4 kmh W 6.9 mph11.1 kmh 29.74 in1007.1 mb 0.00 in0.0 mm 0.00 in/hr0.0 mm/hr 0.00 in0.0 mm
05:45 AM 62.4°F16.9°C 61.5°F16.4°C 97% 4.0 mph WSW6.4 kmh WSW 6.9 mph11.1 kmh 29.73 in1006.8 mb 0.00 in0.0 mm 0.00 in/hr0.0 mm/hr 0.00 in0.0 mm
05:40 AM 62.4°F16.9°C 61.5°F16.4°C 97% 4.0 mph WSW6.4 kmh WSW 6.0 mph9.7 kmh 29.73 in1006.8 mb 0.00 in0.0 mm 0.00 in/hr0.0 mm/hr 0.00 in0.0 mm
05:35 AM 62.4°F16.9°C 61.5°F16.4°C 97% 4.0 mph WSW6.4 kmh WSW 7.0 mph11.3 kmh 29.73 in1006.8 mb 0.00 in0.0 mm 0.00 in/hr0.0 mm/hr 0.00 in0.0 mm
05:30 AM 62.6°F17.0°C 61.5°F16.4°C 96% 2.9 mph W4.7 kmh W 4.9 mph7.9 kmh 29.73 in1006.8 mb 0.00 in0.0 mm 0.00 in/hr0.0 mm/hr 0.00 in0.0 mm
05:25 AM 62.8°F17.1°C 61.7°F16.5°C 96% 2.9 mph WSW4.7 kmh WSW 4.9 mph7.9 kmh 29.73 in1006.8 mb 0.00 in0.0 mm 0.00 in/hr0.0 mm/hr 0.00 in0.0 mm
05:20 AM 63.0°F17.2°C 61.9°F16.6°C 96% 4.0 mph W6.4 kmh W 6.9 mph11.1 kmh 29.73 in1006.8 mb 0.00 in0.0 mm 0.00 in/hr0.0 mm/hr 0.00 in0.0 mm
05:15 AM 63.1°F17.3°C 62.1°F16.7°C 96% 4.0 mph WSW6.4 kmh WSW 6.9 mph11.1 kmh 29.73 in1006.8 mb 0.00 in0.0 mm 0.00 in/hr0.0 mm/hr 0.00 in0.0 mm
05:10 AM 63.1°F17.3°C 62.1°F16.7°C 96% 4.9 mph W7.9 kmh W 8.9 mph14.3 kmh 29.73 in1006.8 mb 0.00 in0.0 mm 0.00 in/hr0.0 mm/hr 0.00 in0.0 mm
05:05 AM 63.0°F17.2°C 61.9°F16.6°C 96% 4.0 mph W6.4 kmh W 8.9 mph14.3 kmh 29.73 in1006.8 mb 0.00 in0.0 mm 0.00 in/hr0.0 mm/hr 0.00 in0.0 mm
05:00 AM 63.0°F17.2°C 61.9°F16.6°C 96% 4.0 mph W6.4 kmh W 6.9 mph11.1 kmh 29.73 in1006.8 mb 0.00 in0.0 mm 0.00 in/hr0.0 mm/hr 0.00 in0.0 mm
04:55 AM 63.0°F17.2°C 62.1°F16.7°C 97% 4.0 mph W6.4 kmh W 6.9 mph11.1 kmh 29.73 in1006.8 mb 0.00 in0.0 mm 0.00 in/hr0.0 mm/hr 0.00 in0.0 mm
04:50 AM 63.0°F17.2°C 62.1°F16.7°C 97% 4.0 mph WSW6.4 kmh WSW 7.0 mph11.3 kmh 29.73 in1006.8 mb 0.00 in0.0 mm 0.00 in/hr0.0 mm/hr 0.00 in0.0 mm
04:45 AM 63.0°F17.2°C 62.1°F16.7°C 97% 4.0 mph WSW6.4 kmh WSW 6.0 mph9.7 kmh 29.73 in1006.8 mb 0.00 in0.0 mm 0.00 in/hr0.0 mm/hr 0.00 in0.0 mm
04:40 AM 63.0°F17.2°C 62.1°F16.7°C 97% 4.0 mph W6.4 kmh W 6.0 mph9.7 kmh 29.73 in1006.8 mb 0.00 in0.0 mm 0.00 in/hr0.0 mm/hr 0.00 in0.0 mm
04:35 AM 63.0°F17.2°C 62.1°F16.7°C 97% 4.0 mph W6.4 kmh W 6.0 mph9.7 kmh 29.73 in1006.8 mb 0.00 in0.0 mm 0.00 in/hr0.0 mm/hr 0.00 in0.0 mm
04:30 AM 63.0°F17.2°C 62.1°F16.7°C 97% 4.0 mph W6.4 kmh W 6.9 mph11.1 kmh 29.73 in1006.8 mb 0.00 in0.0 mm 0.00 in/hr0.0 mm/hr 0.00 in0.0 mm
04:25 AM 63.0°F17.2°C 62.1°F16.7°C 97% 4.0 mph W6.4 kmh W 6.9 mph11.1 kmh 29.73 in1006.8 mb 0.00 in0.0 mm 0.00 in/hr0.0 mm/hr 0.00 in0.0 mm
04:20 AM 63.0°F17.2°C 62.1°F16.7°C 97% 4.0 mph WSW6.4 kmh WSW 7.0 mph11.3 kmh 29.72 in1006.4 mb 0.00 in0.0 mm 0.00 in/hr0.0 mm/hr 0.00 in0.0 mm
04:15 AM 63.0°F17.2°C 62.1°F16.7°C 97% 4.0 mph W6.4 kmh W 6.0 mph9.7 kmh 29.72 in1006.4 mb 0.00 in0.0 mm 0.00 in/hr0.0 mm/hr 0.00 in0.0 mm
04:10 AM 63.0°F17.2°C 62.1°F16.7°C 97% 4.0 mph W6.4 kmh W 7.0 mph11.3 kmh 29.72 in1006.4 mb 0.00 in0.0 mm 0.00 in/hr0.0 mm/hr 0.00 in0.0 mm
04:05 AM 63.0°F17.2°C 62.1°F16.7°C 97% 4.0 mph W6.4 kmh W 4.9 mph7.9 kmh 29.72 in1006.4 mb 0.00 in0.0 mm 0.00 in/hr0.0 mm/hr 0.00 in0.0 mm
04:00 AM 63.0°F17.2°C 62.1°F16.7°C 97% 4.0 mph W6.4 kmh W 6.9 mph11.1 kmh 29.72 in1006.4 mb 0.00 in0.0 mm 0.00 in/hr0.0 mm/hr 0.00 in0.0 mm
03:55 AM 63.0°F17.2°C 62.1°F16.7°C 97% 4.0 mph W6.4 kmh W 6.0 mph9.7 kmh 29.72 in1006.4 mb 0.00 in0.0 mm 0.00 in/hr0.0 mm/hr 0.00 in0.0 mm
03:50 AM 63.0°F17.2°C 62.1°F16.7°C 97% 4.0 mph W6.4 kmh W 8.1 mph13.0 kmh 29.72 in1006.4 mb 0.00 in0.0 mm 0.00 in/hr0.0 mm/hr 0.00 in0.0 mm
03:45 AM 63.1°F17.3°C 62.2°F16.8°C 97% 4.0 mph WSW6.4 kmh WSW 6.9 mph11.1 kmh 29.72 in1006.4 mb 0.00 in0.0 mm 0.00 in/hr0.0 mm/hr 0.00 in0.0 mm
03:40 AM 63.1°F17.3°C 62.2°F16.8°C 97% 4.0 mph WSW6.4 kmh WSW 8.1 mph13.0 kmh 29.72 in1006.4 mb 0.00 in0.0 mm 0.00 in/hr0.0 mm/hr 0.00 in0.0 mm
03:35 AM 63.1°F17.3°C 62.2°F16.8°C 97% 2.9 mph W4.7 kmh W 6.0 mph9.7 kmh 29.71 in1006.1 mb 0.00 in0.0 mm 0.00 in/hr0.0 mm/hr 0.00 in0.0 mm
03:30 AM 63.3°F17.4°C 62.8°F17.1°C 98% 2.9 mph W4.7 kmh W 4.9 mph7.9 kmh 29.71 in1006.1 mb 0.00 in0.0 mm 0.00 in/hr0.0 mm/hr 0.00 in0.0 mm
03:25 AM 63.3°F17.4°C 62.8°F17.1°C 98% 2.9 mph W4.7 kmh W 6.0 mph9.7 kmh 29.71 in1006.1 mb 0.00 in0.0 mm 0.00 in/hr0.0 mm/hr 0.00 in0.0 mm
03:20 AM 63.3°F17.4°C 62.8°F17.1°C 98% 4.0 mph W6.4 kmh W 6.0 mph9.7 kmh 29.72 in1006.4 mb 0.00 in0.0 mm 0.00 in/hr0.0 mm/hr 0.00 in0.0 mm
03:15 AM 63.5°F17.5°C 63.0°F17.2°C 98% 4.0 mph WSW6.4 kmh WSW 6.0 mph9.7 kmh 29.71 in1006.1 mb 0.00 in0.0 mm 0.00 in/hr0.0 mm/hr 0.00 in0.0 mm
03:10 AM 63.5°F17.5°C 63.0°F17.2°C 98% 2.9 mph W4.7 kmh W 6.0 mph9.7 kmh 29.71 in1006.1 mb 0.00 in0.0 mm 0.00 in/hr0.0 mm/hr 0.00 in0.0 mm
03:05 AM 63.5°F17.5°C 63.0°F17.2°C 98% 2.9 mph W4.7 kmh W 6.0 mph9.7 kmh 29.71 in1006.1 mb 0.00 in0.0 mm 0.00 in/hr0.0 mm/hr 0.00 in0.0 mm
03:00 AM 63.5°F17.5°C 63.0°F17.2°C 98% 2.9 mph WSW4.7 kmh WSW 6.0 mph9.7 kmh 29.71 in1006.1 mb 0.00 in0.0 mm 0.00 in/hr0.0 mm/hr 0.00 in0.0 mm
02:55 AM 63.7°F17.6°C 63.1°F17.3°C 98% 2.9 mph W4.7 kmh W 4.9 mph7.9 kmh 29.71 in1006.1 mb 0.00 in0.0 mm 0.00 in/hr0.0 mm/hr 0.00 in0.0 mm
02:50 AM 63.7°F17.6°C 63.1°F17.3°C 98% 2.0 mph W3.2 kmh W 4.9 mph7.9 kmh 29.71 in1006.1 mb 0.00 in0.0 mm 0.00 in/hr0.0 mm/hr 0.00 in0.0 mm
02:45 AM 63.7°F17.6°C 62.8°F17.1°C 97% 2.0 mph W3.2 kmh W 4.0 mph6.4 kmh 29.72 in1006.4 mb 0.00 in0.0 mm 0.00 in/hr0.0 mm/hr 0.00 in0.0 mm
02:40 AM 63.9°F17.7°C 63.0°F17.2°C 97% 2.9 mph WSW4.7 kmh WSW 4.0 mph6.4 kmh 29.72 in1006.4 mb 0.00 in0.0 mm 0.00 in/hr0.0 mm/hr 0.00 in0.0 mm
02:35 AM 63.9°F17.7°C 63.0°F17.2°C 97% 2.9 mph WSW4.7 kmh WSW 4.9 mph7.9 kmh 29.72 in1006.4 mb 0.00 in0.0 mm 0.00 in/hr0.0 mm/hr 0.00 in0.0 mm
02:30 AM 64.0°F17.8°C 63.1°F17.3°C 97% 2.0 mph W3.2 kmh W 4.9 mph7.9 kmh 29.72 in1006.4 mb 0.00 in0.0 mm 0.00 in/hr0.0 mm/hr 0.00 in0.0 mm
02:25 AM 64.0°F17.8°C 63.1°F17.3°C 97% 0.9 mph W1.4 kmh W 2.9 mph4.7 kmh 29.72 in1006.4 mb 0.00 in0.0 mm 0.00 in/hr0.0 mm/hr 0.00 in0.0 mm
02:20 AM 64.2°F17.9°C 63.3°F17.4°C 97% 0.9 mph W1.4 kmh W 2.9 mph4.7 kmh 29.71 in1006.1 mb 0.00 in0.0 mm 0.00 in/hr0.0 mm/hr 0.00 in0.0 mm
02:15 AM 64.2°F17.9°C 63.3°F17.4°C 97% 0.9 mph WSW1.4 kmh WSW 2.9 mph4.7 kmh 29.71 in1006.1 mb 0.00 in0.0 mm 0.00 in/hr0.0 mm/hr 0.00 in0.0 mm
02:10 AM 64.4°F18.0°C 63.5°F17.5°C 97% 0.9 mph WSW1.4 kmh WSW 2.9 mph4.7 kmh 29.71 in1006.1 mb 0.00 in0.0 mm 0.00 in/hr0.0 mm/hr 0.00 in0.0 mm
02:05 AM 64.6°F18.1°C 63.7°F17.6°C 97% 0.9 mph WSW1.4 kmh WSW 2.9 mph4.7 kmh 29.70 in1005.8 mb 0.00 in0.0 mm 0.00 in/hr0.0 mm/hr 0.00 in0.0 mm
02:00 AM 64.6°F18.1°C 63.7°F17.6°C 97% 0.9 mph W1.4 kmh W 4.0 mph6.4 kmh 29.70 in1005.8 mb 0.00 in0.0 mm 0.00 in/hr0.0 mm/hr 0.00 in0.0 mm
01:55 AM 64.8°F18.2°C 63.7°F17.6°C 96% 0.9 mph W1.4 kmh W 4.0 mph6.4 kmh 29.70 in1005.8 mb 0.00 in0.0 mm 0.00 in/hr0.0 mm/hr 0.00 in0.0 mm
01:50 AM 64.8°F18.2°C 63.7°F17.6°C 96% Calm Calm 2.0 mph3.2 kmh 29.70 in1005.8 mb 0.00 in0.0 mm 0.00 in/hr0.0 mm/hr 0.00 in0.0 mm
01:45 AM 64.9°F18.3°C 63.9°F17.7°C 96% 0.9 mph NW1.4 kmh NW 6.0 mph9.7 kmh 29.70 in1005.8 mb 0.00 in0.0 mm 0.00 in/hr0.0 mm/hr 0.00 in0.0 mm
01:40 AM 65.1°F18.4°C 64.0°F17.8°C 96% 2.0 mph NW3.2 kmh NW 2.9 mph4.7 kmh 29.70 in1005.8 mb 0.00 in0.0 mm 0.00 in/hr0.0 mm/hr 0.00 in0.0 mm
01:35 AM 65.1°F18.4°C 64.0°F17.8°C 96% 2.9 mph NW4.7 kmh NW 6.0 mph9.7 kmh 29.70 in1005.8 mb 0.00 in0.0 mm 0.00 in/hr0.0 mm/hr 0.00 in0.0 mm
01:30 AM 65.3°F18.5°C 64.0°F17.8°C 96% 2.9 mph W4.7 kmh W 6.9 mph11.1 kmh 29.69 in1005.4 mb 0.00 in0.0 mm 0.00 in/hr0.0 mm/hr 0.00 in0.0 mm
01:25 AM 65.5°F18.6°C 64.0°F17.8°C 95% 2.9 mph WNW4.7 kmh WNW 4.9 mph7.9 kmh 29.69 in1005.4 mb 0.00 in0.0 mm 0.00 in/hr0.0 mm/hr 0.00 in0.0 mm
01:20 AM 65.5°F18.6°C 64.0°F17.8°C 95% 2.9 mph W4.7 kmh W 6.9 mph11.1 kmh 29.69 in1005.4 mb 0.00 in0.0 mm 0.00 in/hr0.0 mm/hr 0.00 in0.0 mm
01:15 AM 65.7°F18.7°C 64.2°F17.9°C 95% 2.9 mph W4.7 kmh W 6.9 mph11.1 kmh 29.69 in1005.4 mb 0.00 in0.0 mm 0.00 in/hr0.0 mm/hr 0.00 in0.0 mm
01:10 AM 65.7°F18.7°C 64.2°F17.9°C 95% 2.9 mph W4.7 kmh W 6.0 mph9.7 kmh 29.69 in1005.4 mb 0.00 in0.0 mm 0.00 in/hr0.0 mm/hr 0.00 in0.0 mm
01:05 AM 65.7°F18.7°C 64.2°F17.9°C 95% 2.9 mph WSW4.7 kmh WSW 6.0 mph9.7 kmh 29.69 in1005.4 mb 0.00 in0.0 mm 0.00 in/hr0.0 mm/hr 0.00 in0.0 mm
01:00 AM 65.8°F18.8°C 64.4°F18.0°C 95% 4.0 mph WSW6.4 kmh WSW 6.0 mph9.7 kmh 29.69 in1005.4 mb 0.00 in0.0 mm 0.00 in/hr0.0 mm/hr 0.00 in0.0 mm
12:55 AM 65.8°F18.8°C 64.4°F18.0°C 95% 4.0 mph WNW6.4 kmh WNW 6.9 mph11.1 kmh 29.68 in1005.1 mb 0.00 in0.0 mm 0.00 in/hr0.0 mm/hr 0.00 in0.0 mm
12:50 AM 66.0°F18.9°C 64.6°F18.1°C 95% 4.0 mph WNW6.4 kmh WNW 6.9 mph11.1 kmh 29.68 in1005.1 mb 0.00 in0.0 mm 0.00 in/hr0.0 mm/hr 0.00 in0.0 mm
12:45 AM 66.0°F18.9°C 64.2°F17.9°C 94% 4.9 mph W7.9 kmh W 6.9 mph11.1 kmh 29.68 in1005.1 mb 0.00 in0.0 mm 0.00 in/hr0.0 mm/hr 0.00 in0.0 mm
12:40 AM 66.2°F19.0°C 64.4°F18.0°C 94% 4.9 mph WSW7.9 kmh WSW 8.9 mph14.3 kmh 29.68 in1005.1 mb 0.00 in0.0 mm 0.00 in/hr0.0 mm/hr 0.00 in0.0 mm
12:35 AM 66.2°F19.0°C 64.4°F18.0°C 94% 4.9 mph W7.9 kmh W 10.1 mph16.3 kmh 29.68 in1005.1 mb 0.00 in0.0 mm 0.00 in/hr0.0 mm/hr 0.00 in0.0 mm
12:30 AM 66.4°F19.1°C 64.6°F18.1°C 94% 4.0 mph WSW6.4 kmh WSW 8.1 mph13.0 kmh 29.68 in1005.1 mb 0.00 in0.0 mm 0.00 in/hr0.0 mm/hr 0.00 in0.0 mm
12:25 AM 66.4°F19.1°C 64.6°F18.1°C 94% 4.9 mph WSW7.9 kmh WSW 8.1 mph13.0 kmh 29.68 in1005.1 mb 0.00 in0.0 mm 0.00 in/hr0.0 mm/hr 0.00 in0.0 mm
12:20 AM 66.6°F19.2°C 64.8°F18.2°C 94% 4.9 mph W7.9 kmh W 8.1 mph13.0 kmh 29.68 in1005.1 mb 0.00 in0.0 mm 0.00 in/hr0.0 mm/hr 0.00 in0.0 mm
12:15 AM 66.6°F19.2°C 64.4°F18.0°C 93% 6.0 mph WSW9.7 kmh WSW 8.9 mph14.3 kmh 29.68 in1005.1 mb 0.00 in0.0 mm 0.00 in/hr0.0 mm/hr 0.00 in0.0 mm
12:10 AM 66.6°F19.2°C 64.8°F18.2°C 94% 6.0 mph W9.7 kmh W 11.0 mph17.7 kmh 29.67 in1004.7 mb 0.00 in0.0 mm 0.00 in/hr0.0 mm/hr 0.00 in0.0 mm
12:05 AM 66.6°F19.2°C 64.8°F18.2°C 94% 6.0 mph W9.7 kmh W 11.0 mph17.7 kmh 29.67 in1004.7 mb 0.00 in0.0 mm 0.00 in/hr0.0 mm/hr 0.00 in0.0 mm
12:00 AM 66.6°F19.2°C 64.8°F18.2°C 94% 6.0 mph WSW9.7 kmh WSW 8.9 mph14.3 kmh 29.67 in1004.7 mb 0.00 in0.0 mm 0.00 in/hr0.0 mm/hr 0.00 in0.0 mm